createdAt,value
2018-11-23T06:01:06.918Z,65.79
2018-11-23T06:06:10.284Z,66.49
2018-11-23T06:11:14.402Z,66.44
2018-11-23T06:16:17.739Z,66.94
2018-11-23T06:21:21.854Z,67.76
2018-11-23T06:26:26.787Z,67.37
2018-11-23T06:31:30.134Z,67.50
2018-11-23T06:36:34.256Z,67.75
2018-11-23T06:41:38.371Z,68.07
2018-11-23T06:46:42.208Z,67.93
2018-11-23T06:51:46.328Z,67.22
2018-11-23T06:56:49.679Z,67.42
2018-11-23T07:01:54.566Z,67.28
2018-11-23T07:06:57.911Z,67.59
2018-11-23T07:12:01.249Z,68.25
2018-11-23T07:17:04.583Z,68.92
2018-11-23T07:22:07.927Z,68.67
2018-11-23T07:27:11.262Z,68.54
2018-11-23T07:32:14.608Z,68.48
2018-11-23T07:37:17.966Z,68.67
2018-11-23T07:42:21.296Z,68.38
2018-11-23T07:47:24.622Z,67.84
2018-11-23T07:52:48.957Z,68.41
2018-11-23T07:57:52.307Z,68.46
2018-11-23T08:02:55.640Z,69.02
2018-11-23T08:07:58.984Z,68.35
2018-11-23T08:13:02.333Z,68.54
2018-11-23T08:18:05.677Z,68.27
2018-11-23T08:23:09.800Z,68.83
2018-11-23T08:28:13.146Z,68.45
2018-11-23T08:33:18.508Z,68.14
2018-11-23T08:38:20.765Z,68.05
2018-11-23T08:43:24.107Z,67.62
2018-11-23T08:48:27.448Z,68.02
2018-11-23T08:53:30.789Z,68.09
2018-11-23T08:58:34.117Z,67.44
2018-11-23T09:03:37.479Z,67.27
2018-11-23T09:08:40.830Z,67.72
2018-11-23T09:13:44.181Z,68.24
2018-11-23T09:18:48.294Z,68.00
2018-11-23T09:23:51.634Z,67.84
2018-11-23T09:28:54.969Z,67.64
2018-11-23T09:33:58.314Z,67.94
2018-11-23T09:39:01.656Z,67.46
2018-11-23T09:44:05.767Z,68.32
2018-11-23T09:49:09.118Z,67.54
2018-11-23T09:54:12.460Z,68.61
2018-11-23T09:59:15.801Z,68.73
2018-11-23T10:04:19.165Z,69.03
2018-11-23T10:09:22.514Z,68.19
2018-11-23T10:14:25.839Z,67.83
2018-11-23T10:19:29.193Z,68.10
2018-11-23T10:24:33.284Z,67.89
2018-11-23T10:29:36.635Z,68.15
2018-11-23T10:34:39.975Z,67.53
2018-11-23T10:39:46.647Z,67.41
2018-11-23T10:44:50.205Z,67.56
2018-11-23T10:49:54.028Z,67.68
2018-11-23T10:54:57.355Z,68.37
2018-11-23T11:00:00.742Z,67.96
2018-11-23T11:05:04.184Z,68.26
2018-11-23T11:10:11.187Z,67.64
2018-11-23T11:15:14.530Z,67.15
2018-11-23T11:20:17.885Z,67.43
2018-11-23T11:25:21.222Z,67.92
2018-11-23T11:30:24.565Z,68.23
2018-11-23T11:35:28.664Z,68.04
2018-11-23T11:40:32.018Z,67.25
2018-11-23T11:45:35.361Z,67.35
2018-11-23T11:50:38.704Z,67.07
2018-11-23T11:55:42.059Z,67.01
2018-11-23T12:00:45.396Z,67.06
2018-11-23T12:05:48.720Z,66.30
2018-11-23T12:10:52.876Z,66.61
2018-11-23T12:15:56.211Z,66.10
2018-11-23T12:21:00.322Z,66.19
2018-11-23T12:26:03.672Z,66.69
2018-11-23T12:31:07.014Z,66.47
2018-11-23T12:36:10.354Z,66.25
2018-11-23T12:41:13.707Z,66.38
2018-11-23T12:46:17.053Z,66.34
2018-11-23T12:51:20.412Z,65.92
2018-11-23T12:56:23.746Z,65.90
2018-11-23T13:01:27.090Z,65.87
2018-11-23T13:06:30.429Z,65.68
2018-11-23T13:11:33.777Z,66.15
2018-11-23T13:16:37.875Z,66.37
2018-11-23T13:21:41.212Z,66.26
2018-11-23T13:26:45.341Z,66.70
2018-11-23T13:31:48.695Z,66.06
2018-11-23T13:36:52.060Z,65.54
2018-11-23T13:41:55.423Z,66.34
2018-11-23T13:46:58.747Z,66.24
2018-11-23T13:52:02.094Z,65.73
2018-11-23T13:57:05.537Z,66.19
2018-11-23T14:02:08.877Z,66.76
2018-11-23T14:07:12.220Z,66.79
2018-11-23T14:12:18.461Z,66.28
2018-11-23T14:17:24.914Z,66.35
2018-11-23T14:22:31.296Z,66.92
2018-11-23T14:27:36.207Z,67.63
2018-11-23T14:32:41.067Z,67.33
2018-11-23T14:37:44.424Z,67.34
2018-11-23T14:42:47.772Z,67.00
2018-11-23T14:47:51.126Z,67.33
2018-11-23T14:52:54.462Z,67.41
2018-11-23T14:57:57.794Z,67.45
2018-11-23T15:03:01.217Z,68.30
2018-11-23T15:08:04.565Z,68.28
2018-11-23T15:13:07.916Z,67.94
2018-11-23T15:18:12.022Z,68.74
2018-11-23T15:23:15.376Z,67.82
2018-11-23T15:28:18.735Z,67.80
2018-11-23T15:33:22.092Z,68.39
2018-11-23T15:38:25.433Z,67.82
2018-11-23T15:43:28.773Z,68.53
2018-11-23T15:48:32.136Z,68.07
2018-11-23T15:53:35.493Z,68.18
2018-11-23T15:58:38.864Z,67.55
2018-11-23T16:03:42.185Z,67.98
2018-11-23T16:08:45.550Z,67.61
2018-11-23T16:13:48.877Z,68.31
2018-11-23T16:18:52.980Z,68.00
2018-11-23T16:23:56.339Z,68.20
2018-11-23T16:28:59.677Z,68.41
2018-11-23T16:34:03.018Z,68.65
2018-11-23T16:39:06.373Z,69.34
2018-11-23T16:44:13.128Z,69.56
2018-11-23T16:49:16.479Z,69.21
2018-11-23T16:54:38.167Z,69.52
2018-11-23T16:59:41.541Z,69.87
2018-11-23T17:04:45.011Z,69.19
2018-11-23T17:09:48.598Z,69.28
2018-11-23T17:14:52.829Z,69.33
2018-11-23T17:19:55.341Z,68.97
2018-11-23T17:25:00.612Z,69.22
2018-11-23T17:30:04.139Z,68.96
2018-11-23T17:35:08.915Z,69.23
2018-11-23T17:40:12.651Z,69.88
2018-11-23T17:45:17.387Z,69.71
2018-11-23T17:50:21.004Z,70.50
2018-11-23T17:55:24.580Z,69.70
2018-11-23T18:00:28.038Z,68.90
2018-11-23T18:05:31.397Z,68.97
2018-11-23T18:10:34.739Z,69.61
2018-11-23T18:15:38.087Z,69.96
2018-11-23T18:20:41.439Z,69.67
2018-11-23T18:25:44.796Z,70.06
2018-11-23T18:30:51.133Z,70.64
2018-11-23T18:35:54.831Z,71.02
2018-11-23T18:40:59.363Z,71.09
2018-11-23T18:46:03.658Z,70.20
2018-11-23T18:51:10.605Z,70.33
2018-11-23T18:56:14.221Z,70.05
2018-11-23T19:01:17.940Z,69.58
2018-11-23T19:06:26.471Z,69.64
2018-11-23T19:11:30.064Z,69.73
2018-11-23T19:16:33.930Z,70.14
2018-11-23T19:21:37.385Z,70.84
2018-11-23T19:26:40.834Z,69.47
2018-11-23T19:31:44.370Z,69.55
2018-11-23T19:36:47.875Z,70.01
2018-11-23T19:41:51.246Z,69.74
2018-11-23T19:46:54.597Z,70.07
2018-11-23T19:51:57.931Z,70.56
2018-11-23T19:57:01.297Z,70.73
2018-11-23T20:02:04.679Z,70.63
2018-11-23T20:07:08.081Z,70.83
2018-11-23T20:12:11.543Z,70.35
2018-11-23T20:17:15.848Z,69.84
2018-11-23T20:22:20.084Z,70.67
2018-11-23T20:27:24.220Z,70.57
2018-11-23T20:32:27.585Z,70.53
2018-11-23T20:37:30.919Z,70.09
2018-11-23T20:42:34.256Z,70.34
2018-11-23T20:47:37.587Z,69.95
2018-11-23T20:52:40.952Z,71.16
2018-11-23T20:57:44.301Z,70.46
2018-11-23T21:02:47.636Z,70.96
2018-11-23T21:07:51.752Z,70.31
2018-11-23T21:12:55.093Z,70.57
2018-11-23T21:17:59.199Z,70.83
2018-11-23T21:23:04.560Z,70.85
2018-11-23T21:28:07.907Z,70.50
2018-11-23T21:33:14.344Z,70.28
2018-11-23T21:38:17.680Z,69.71
2018-11-23T21:43:21.041Z,69.41
2018-11-23T21:48:24.404Z,69.61
2018-11-23T21:53:27.742Z,69.78
2018-11-23T21:58:31.095Z,69.75
2018-11-23T22:03:35.467Z,69.40
2018-11-23T22:08:38.817Z,69.09
2018-11-23T22:13:54.695Z,69.55
2018-11-23T22:18:58.797Z,69.04
2018-11-23T22:29:43.544Z,68.96
2018-11-23T22:34:46.884Z,69.08
2018-11-23T22:39:50.241Z,68.81
2018-11-23T22:44:53.852Z,68.99
2018-11-23T22:49:57.299Z,69.43
2018-11-23T22:55:01.506Z,68.99
2018-11-23T23:00:04.848Z,69.00
2018-11-23T23:05:08.950Z,68.91
2018-11-23T23:10:12.293Z,69.30
2018-11-23T23:15:16.483Z,69.34
2018-11-23T23:20:19.822Z,69.46
2018-11-23T23:25:23.163Z,69.77
2018-11-23T23:30:26.506Z,69.38
2018-11-23T23:35:29.848Z,70.00
2018-11-23T23:40:33.182Z,69.75
2018-11-23T23:45:36.524Z,70.00
2018-11-23T23:50:39.869Z,70.29
2018-11-23T23:55:43.197Z,70.34
